Time;durP1;ratioP1;P1;durP2;ratioP2;P2;SDS_P1;SDS_P2;PMS_P1;PMS_P2;Temp;Humidity;BMP_temperature;BMP_pressure;BME280_temperature;BME280_humidity;BME280_pressure;Samples;Min_cycle;Max_cycle;Signal;HPM_P1;HPM_P2
2023/12/16 00:00:01;;;;;;;17.07;10.20;;;6.30;99.90;;;;;;5104145;28;20476;-68
2023/12/16 00:02:29;;;;;;;16.20;10.00;;;6.40;99.90;;;;;;5104130;28;20518;-68
2023/12/16 00:04:57;;;;;;;16.87;10.77;;;6.50;99.90;;;;;;5104075;28;20468;-66
2023/12/16 00:07:25;;;;;;;17.47;10.70;;;6.50;99.90;;;;;;5104398;28;20566;-69
2023/12/16 00:09:53;;;;;;;17.90;10.27;;;6.40;99.90;;;;;;5104043;28;20441;-67
2023/12/16 00:12:21;;;;;;;17.20;9.93;;;6.30;99.90;;;;;;5104291;28;20433;-69
2023/12/16 00:14:49;;;;;;;15.83;9.47;;;6.30;99.90;;;;;;5101620;28;21250;-68
2023/12/16 00:17:19;;;;;;;17.13;9.47;;;6.40;99.90;;;;;;5104440;28;20436;-69
2023/12/16 00:19:47;;;;;;;13.67;8.13;;;6.40;99.90;;;;;;5103079;27;20900;-69
2023/12/16 00:22:15;;;;;;;20.63;9.90;;;6.30;99.90;;;;;;5102790;28;20453;-69
2023/12/16 00:24:43;;;;;;;17.00;9.70;;;6.20;99.90;;;;;;5102109;28;21971;-69
2023/12/16 00:27:11;;;;;;;14.87;9.27;;;6.30;99.90;;;;;;5103377;28;20437;-69
2023/12/16 00:29:39;;;;;;;18.30;10.67;;;6.20;99.90;;;;;;5102557;28;20444;-68
2023/12/16 00:32:07;;;;;;;14.53;9.53;;;6.20;99.90;;;;;;5103146;28;20448;-67
2023/12/16 00:34:36;;;;;;;16.47;9.17;;;6.10;99.90;;;;;;5102009;28;20461;-67
2023/12/16 00:37:05;;;;;;;15.60;9.33;;;6.00;99.90;;;;;;5103222;28;20509;-68
2023/12/16 00:39:33;;;;;;;14.97;9.17;;;6.00;99.90;;;;;;5102982;28;20525;-68
2023/12/16 00:42:01;;;;;;;16.50;9.97;;;5.90;99.90;;;;;;5103035;28;20441;-69
2023/12/16 00:44:31;;;;;;;15.83;10.33;;;5.90;99.90;;;;;;5098011;27;21210;-70
2023/12/16 00:46:59;;;;;;;16.30;9.43;;;5.90;99.90;;;;;;5094175;28;20986;-69
2023/12/16 00:49:27;;;;;;;15.60;9.00;;;5.90;99.90;;;;;;5102683;28;20478;-69
2023/12/16 00:51:57;;;;;;;15.23;8.70;;;6.00;99.90;;;;;;5095344;28;20460;-68
2023/12/16 00:54:26;;;;;;;17.73;9.80;;;6.00;99.90;;;;;;5100528;27;20466;-69
2023/12/16 00:56:54;;;;;;;19.03;10.87;;;6.00;99.90;;;;;;5103295;28;20451;-69
2023/12/16 00:59:23;;;;;;;18.60;9.17;;;6.10;99.90;;;;;;5102364;28;20473;-69
2023/12/16 01:01:51;;;;;;;16.97;9.77;;;6.20;99.90;;;;;;5091439;28;21044;-68
2023/12/16 01:04:19;;;;;;;21.87;10.87;;;6.30;99.90;;;;;;5079103;28;21462;-69
2023/12/16 01:06:47;;;;;;;19.93;10.10;;;6.40;99.90;;;;;;5089117;27;20454;-69
2023/12/16 01:09:17;;;;;;;15.53;9.90;;;6.30;99.90;;;;;;5092472;28;20473;-69
2023/12/16 01:11:46;;;;;;;16.23;10.27;;;6.20;99.90;;;;;;5090815;28;20446;-68
2023/12/16 01:14:14;;;;;;;15.97;9.50;;;6.10;99.90;;;;;;5089849;28;20501;-69
2023/12/16 01:16:42;;;;;;;17.03;9.80;;;6.10;99.90;;;;;;5079727;28;20535;-66
2023/12/16 01:19:10;;;;;;;20.13;10.20;;;6.10;99.90;;;;;;5089903;28;20444;-69
2023/12/16 01:21:41;;;;;;;20.10;10.53;;;6.10;99.90;;;;;;5091248;28;20466;-69
2023/12/16 01:24:09;;;;;;;18.80;10.17;;;6.00;99.90;;;;;;5091740;28;21067;-68
2023/12/16 01:26:39;;;;;;;16.70;9.40;;;6.10;99.90;;;;;;5090485;28;20516;-68
2023/12/16 01:29:07;;;;;;;19.33;11.17;;;6.20;99.90;;;;;;5092828;28;20557;-69
2023/12/16 01:31:35;;;;;;;20.23;11.80;;;6.20;99.90;;;;;;5090948;28;20472;-69
2023/12/16 01:34:03;;;;;;;16.60;10.57;;;6.10;99.90;;;;;;5088877;28;20467;-69
2023/12/16 01:36:32;;;;;;;17.97;11.37;;;6.10;99.90;;;;;;5100476;28;20438;-69
2023/12/16 01:39:00;;;;;;;19.47;10.53;;;6.10;99.90;;;;;;5096366;28;20517;-69
2023/12/16 01:41:27;;;;;;;19.17;9.80;;;6.10;99.90;;;;;;5088189;28;20447;-68
2023/12/16 01:43:57;;;;;;;16.47;10.20;;;6.20;99.90;;;;;;5099116;28;20437;-67
2023/12/16 01:46:25;;;;;;;16.60;9.00;;;6.20;99.90;;;;;;5100176;28;20982;-69
2023/12/16 01:48:54;;;;;;;16.33;9.50;;;6.10;99.90;;;;;;5094424;28;21009;-67
2023/12/16 01:51:22;;;;;;;19.13;10.70;;;6.10;99.90;;;;;;5091951;28;20850;-70
2023/12/16 01:53:50;;;;;;;18.10;10.00;;;6.20;99.90;;;;;;5101124;27;20460;-69
2023/12/16 01:56:19;;;;;;;18.30;10.30;;;6.20;99.90;;;;;;5100389;28;21084;-68
2023/12/16 01:58:47;;;;;;;20.03;12.47;;;6.10;99.90;;;;;;5101935;27;20474;-70
2023/12/16 02:01:17;;;;;;;16.00;10.73;;;6.10;99.90;;;;;;5098842;27;20595;-70
2023/12/16 02:03:46;;;;;;;17.20;10.80;;;6.20;99.90;;;;;;5085087;28;20508;-70
2023/12/16 02:06:14;;;;;;;18.40;10.73;;;6.00;99.90;;;;;;5085153;28;20497;-70
2023/12/16 02:08:42;;;;;;;16.73;10.43;;;6.10;99.90;;;;;;5099695;27;20886;-69
2023/12/16 02:11:12;;;;;;;15.53;10.30;;;6.00;99.90;;;;;;5112276;27;20512;-70
2023/12/16 02:13:41;;;;;;;17.97;10.53;;;5.90;99.90;;;;;;5112765;27;20497;-70
2023/12/16 02:16:10;;;;;;;17.37;9.97;;;6.00;99.90;;;;;;5098195;27;20881;-70
2023/12/16 02:18:39;;;;;;;20.60;10.93;;;6.00;99.90;;;;;;5085437;28;20491;-71
2023/12/16 02:21:07;;;;;;;16.67;9.90;;;6.10;99.90;;;;;;5084754;28;20927;-71
2023/12/16 02:23:39;;;;;;;17.60;11.10;;;6.10;99.90;;;;;;5083807;28;20449;-69
2023/12/16 02:26:07;;;;;;;16.97;10.00;;;6.00;99.90;;;;;;5084041;28;20512;-69
2023/12/16 02:28:35;;;;;;;17.30;10.43;;;6.00;99.90;;;;;;5084418;28;20626;-69
2023/12/16 02:31:04;;;;;;;16.80;10.73;;;6.00;99.90;;;;;;5084799;28;20445;-69
2023/12/16 02:33:32;;;;;;;20.00;10.73;;;5.90;99.90;;;;;;5084226;28;20447;-69
2023/12/16 02:36:01;;;;;;;19.07;10.93;;;5.90;99.90;;;;;;5084010;28;21098;-69
2023/12/16 02:38:29;;;;;;;20.30;11.97;;;5.90;99.90;;;;;;5093349;28;20548;-69
2023/12/16 02:40:59;;;;;;;19.67;12.50;;;5.80;99.90;;;;;;5104075;27;20507;-70
2023/12/16 02:43:27;;;;;;;18.90;11.50;;;5.90;99.90;;;;;;5092226;28;20429;-70
2023/12/16 02:45:54;;;;;;;17.97;11.47;;;5.90;99.90;;;;;;5090192;28;20616;-69
2023/12/16 02:48:22;;;;;;;24.30;11.27;;;5.90;99.90;;;;;;5089667;28;20441;-70
2023/12/16 02:50:50;;;;;;;17.60;10.80;;;5.90;99.90;;;;;;5111434;27;20453;-70
2023/12/16 02:53:18;;;;;;;15.33;9.40;;;5.90;99.90;;;;;;5110380;27;20522;-70
2023/12/16 02:55:46;;;;;;;17.37;10.70;;;6.00;99.90;;;;;;5084764;28;20516;-69
2023/12/16 02:58:15;;;;;;;17.50;10.43;;;6.00;99.90;;;;;;5085604;28;20952;-70
2023/12/16 03:00:43;;;;;;;18.33;10.00;;;6.00;99.90;;;;;;5084451;28;20460;-69
2023/12/16 03:03:11;;;;;;;16.90;10.17;;;5.90;99.90;;;;;;5089135;28;20993;-68
2023/12/16 03:05:39;;;;;;;17.10;10.57;;;5.80;99.90;;;;;;5092702;28;20554;-68
2023/12/16 03:08:08;;;;;;;17.07;10.47;;;5.80;99.90;;;;;;5084080;28;20442;-70
2023/12/16 03:10:36;;;;;;;21.27;11.07;;;5.80;99.90;;;;;;5092871;28;20485;-70
2023/12/16 03:13:04;;;;;;;18.30;10.57;;;6.10;99.90;;;;;;5084712;28;20492;-69
2023/12/16 03:15:33;;;;;;;16.47;10.20;;;6.20;99.90;;;;;;5084055;28;20496;-69
2023/12/16 03:18:01;;;;;;;20.77;13.00;;;6.20;99.90;;;;;;5084549;28;20455;-70
2023/12/16 03:20:29;;;;;;;17.03;10.70;;;6.00;99.90;;;;;;5084137;28;20445;-70
2023/12/16 03:22:57;;;;;;;19.40;11.23;;;5.90;99.90;;;;;;5083698;28;20456;-71
2023/12/16 03:25:25;;;;;;;19.93;12.33;;;5.90;99.90;;;;;;5083692;28;20492;-70
2023/12/16 03:27:54;;;;;;;17.77;10.67;;;5.90;99.90;;;;;;5084449;28;20430;-70
2023/12/16 03:30:22;;;;;;;20.13;11.73;;;5.90;99.90;;;;;;5083227;28;20478;-70
2023/12/16 03:32:51;;;;;;;17.40;11.10;;;6.00;99.90;;;;;;5083663;28;20529;-70
2023/12/16 03:35:20;;;;;;;18.50;11.17;;;5.90;99.90;;;;;;5083680;28;20473;-70
2023/12/16 03:37:48;;;;;;;18.40;11.37;;;5.90;99.90;;;;;;5092701;28;20438;-70
2023/12/16 03:40:16;;;;;;;18.43;10.83;;;5.90;99.90;;;;;;5083920;28;21120;-70
2023/12/16 03:42:44;;;;;;;21.30;12.30;;;5.80;99.90;;;;;;5083354;28;20457;-70
2023/12/16 03:45:12;;;;;;;20.80;12.20;;;5.90;99.90;;;;;;5083052;28;20473;-69
2023/12/16 03:47:40;;;;;;;16.20;9.40;;;5.90;99.90;;;;;;5084076;28;20464;-70
2023/12/16 03:50:10;;;;;;;23.30;11.73;;;5.90;99.90;;;;;;5084795;28;20480;-71
2023/12/16 03:52:38;;;;;;;19.93;12.50;;;6.00;99.90;;;;;;5086703;28;20924;-70
2023/12/16 03:55:07;;;;;;;16.93;10.37;;;5.90;99.90;;;;;;5087170;28;20462;-69
2023/12/16 03:57:35;;;;;;;16.00;9.43;;;5.90;99.90;;;;;;5087808;28;20454;-67
2023/12/16 04:00:03;;;;;;;18.33;10.47;;;5.90;99.90;;;;;;5098930;28;20438;-68
2023/12/16 04:02:31;;;;;;;15.60;9.73;;;5.90;99.90;;;;;;5107808;28;20448;-69
2023/12/16 04:04:59;;;;;;;18.53;11.10;;;5.90;99.90;;;;;;5107216;28;20472;-69
2023/12/16 04:07:29;;;;;;;15.07;9.87;;;5.90;99.90;;;;;;5108129;28;20501;-70
2023/12/16 04:09:57;;;;;;;18.63;10.57;;;5.90;99.90;;;;;;5107597;28;21053;-69
2023/12/16 04:12:25;;;;;;;20.17;12.37;;;6.00;99.90;;;;;;5107021;28;20449;-70
2023/12/16 04:14:53;;;;;;;23.13;14.17;;;6.00;99.90;;;;;;5106572;28;21003;-69
2023/12/16 04:17:21;;;;;;;22.87;12.40;;;5.90;99.90;;;;;;5108105;28;20992;-70
2023/12/16 04:19:52;;;;;;;19.40;11.93;;;5.90;99.90;;;;;;5108027;28;20963;-68
2023/12/16 04:22:24;;;;;;;21.03;12.43;;;6.00;99.90;;;;;;5106791;28;20445;-69
2023/12/16 04:24:57;;;;;;;19.40;12.07;;;5.90;99.90;;;;;;5106456;28;20457;-70
2023/12/16 04:27:34;;;;;;;18.83;10.30;;;5.90;99.90;;;;;;5107634;28;20523;-69
2023/12/16 04:30:03;;;;;;;21.60;12.17;;;5.90;99.90;;;;;;5107176;28;21305;-70
2023/12/16 04:32:37;;;;;;;19.37;11.67;;;5.90;99.90;;;;;;5106383;28;20483;-70
2023/12/16 04:35:06;;;;;;;18.67;11.70;;;6.10;99.90;;;;;;5107646;28;20457;-69
2023/12/16 04:37:37;;;;;;;18.90;11.80;;;6.10;99.90;;;;;;5108670;28;20441;-70
2023/12/16 04:40:08;;;;;;;18.77;12.53;;;6.10;99.90;;;;;;5108381;28;20938;-71
2023/12/16 04:42:42;;;;;;;19.83;11.70;;;6.10;99.90;;;;;;5108490;28;20476;-69
2023/12/16 04:45:10;;;;;;;18.80;11.60;;;6.00;99.90;;;;;;5106341;28;21305;-69
2023/12/16 04:47:44;;;;;;;18.57;10.90;;;6.20;99.90;;;;;;5093523;28;20849;-69
2023/12/16 04:50:12;;;;;;;20.53;12.00;;;6.30;99.90;;;;;;5087477;28;20494;-71
2023/12/16 04:52:50;;;;;;;;;;;;;;;;;;;;;
2023/12/16 04:55:19;;;;;;;22.43;11.80;;;6.10;99.90;;;;;;5085912;28;20886;-70
2023/12/16 04:58:03;;;;;;;19.50;11.07;;;6.00;99.90;;;;;;5086900;28;21126;-70
2023/12/16 05:00:31;;;;;;;16.30;9.53;;;5.90;99.90;;;;;;5085820;28;20441;-70
2023/12/16 05:03:08;;;;;;;20.43;11.17;;;5.90;99.90;;;;;;5084912;28;20833;-69
2023/12/16 05:05:36;;;;;;;16.27;10.00;;;6.00;99.90;;;;;;5085538;28;20579;-69
2023/12/16 05:08:14;;;;;;;17.77;10.93;;;5.90;99.90;;;;;;5086542;28;20501;-70
2023/12/16 05:10:47;;;;;;;16.20;8.87;;;6.00;99.90;;;;;;5086404;28;20889;-69
2023/12/16 05:13:18;;;;;;;16.23;10.27;;;5.90;99.90;;;;;;5087023;28;20434;-69
2023/12/16 05:15:46;;;;;;;16.97;10.57;;;5.80;99.90;;;;;;5085124;28;20526;-70
2023/12/16 05:18:14;;;;;;;17.67;10.63;;;5.70;99.90;;;;;;5085953;28;20479;-70
2023/12/16 05:20:52;;;;;;;19.63;9.53;;;5.70;99.90;;;;;;5085593;28;20434;-69
2023/12/16 05:23:20;;;;;;;16.93;10.70;;;5.80;99.90;;;;;;5085182;28;20465;-68
2023/12/16 05:25:49;;;;;;;17.23;10.83;;;5.80;99.90;;;;;;5084794;28;20473;-69
2023/12/16 05:28:17;;;;;;;20.60;10.50;;;5.80;99.90;;;;;;5085147;28;20461;-68
2023/12/16 05:30:46;;;;;;;20.40;11.60;;;5.70;99.90;;;;;;5086497;28;20485;-69
2023/12/16 05:33:14;;;;;;;18.20;10.93;;;5.70;99.90;;;;;;5086283;28;20507;-69
2023/12/16 05:35:42;;;;;;;19.73;10.53;;;5.70;99.90;;;;;;5085248;28;20480;-68
2023/12/16 05:38:10;;;;;;;17.23;11.17;;;5.70;99.90;;;;;;5085433;28;20461;-69
2023/12/16 05:40:38;;;;;;;18.43;12.07;;;5.70;99.90;;;;;;5085624;28;20444;-69
2023/12/16 05:43:08;;;;;;;16.03;10.33;;;5.60;99.90;;;;;;5085306;28;20458;-69
2023/12/16 05:45:36;;;;;;;17.60;10.70;;;5.70;99.90;;;;;;5085017;28;20874;-68
2023/12/16 05:48:04;;;;;;;16.23;9.67;;;5.70;99.90;;;;;;5085692;28;20445;-69
2023/12/16 05:50:32;;;;;;;16.00;9.93;;;5.50;99.90;;;;;;5085339;28;20504;-70
2023/12/16 05:53:00;;;;;;;14.47;9.43;;;5.40;99.90;;;;;;5084820;28;20579;-69
2023/12/16 05:55:28;;;;;;;15.47;9.00;;;5.40;99.90;;;;;;5085221;28;20920;-70
2023/12/16 05:57:56;;;;;;;16.50;9.43;;;5.30;99.90;;;;;;5086420;28;20995;-70
2023/12/16 06:00:25;;;;;;;17.27;10.67;;;5.30;99.90;;;;;;5085634;28;20439;-69
2023/12/16 06:02:53;;;;;;;16.07;9.50;;;5.30;99.90;;;;;;5085187;28;20454;-69
2023/12/16 06:05:22;;;;;;;17.87;9.87;;;5.40;99.90;;;;;;5085948;28;20521;-69
2023/12/16 06:07:50;;;;;;;17.03;10.10;;;5.40;99.90;;;;;;5091280;28;20552;-69
2023/12/16 06:10:21;;;;;;;16.77;10.07;;;5.50;99.90;;;;;;5084381;28;20478;-68
2023/12/16 06:12:49;;;;;;;17.87;10.03;;;5.50;99.90;;;;;;5084377;28;20442;-69
2023/12/16 06:15:21;;;;;;;20.00;10.13;;;5.60;99.90;;;;;;5084594;28;20469;-68
2023/12/16 06:17:50;;;;;;;17.10;10.60;;;5.60;99.90;;;;;;5084928;28;20536;-68
2023/12/16 06:20:18;;;;;;;20.80;10.53;;;5.50;99.90;;;;;;5085005;28;20880;-68
2023/12/16 06:22:46;;;;;;;24.63;10.80;;;5.50;99.90;;;;;;5085471;28;20453;-69
2023/12/16 06:25:14;;;;;;;16.83;9.20;;;5.50;99.90;;;;;;5090815;28;20474;-69
2023/12/16 06:27:44;;;;;;;16.50;10.27;;;5.50;99.90;;;;;;5084631;28;20477;-69
2023/12/16 06:30:13;;;;;;;16.40;10.50;;;5.50;99.90;;;;;;5084855;28;20449;-69
2023/12/16 06:32:41;;;;;;;17.03;10.17;;;5.50;99.90;;;;;;5084299;28;21156;-69
2023/12/16 06:35:11;;;;;;;18.47;9.97;;;5.50;99.90;;;;;;5084164;28;20492;-69
2023/12/16 06:37:38;;;;;;;16.73;10.03;;;5.60;99.90;;;;;;5083939;28;20446;-68
2023/12/16 06:40:08;;;;;;;22.03;11.20;;;5.60;99.90;;;;;;5085493;28;20846;-69
2023/12/16 06:42:36;;;;;;;18.07;10.10;;;5.50;99.90;;;;;;5084404;28;20533;-69
2023/12/16 06:45:06;;;;;;;18.90;10.83;;;5.60;99.90;;;;;;5083849;28;20467;-68
2023/12/16 06:47:34;;;;;;;18.07;10.30;;;5.70;99.90;;;;;;5084855;28;20445;-69
2023/12/16 06:50:02;;;;;;;17.03;9.43;;;5.60;99.90;;;;;;5084549;28;20454;-69
2023/12/16 06:52:34;;;;;;;20.13;10.63;;;5.50;99.90;;;;;;5083984;28;20497;-69
2023/12/16 06:55:02;;;;;;;18.80;10.03;;;5.50;99.90;;;;;;5083569;28;21070;-69
2023/12/16 06:57:31;;;;;;;20.10;11.30;;;5.40;99.90;;;;;;5084644;28;20828;-69
2023/12/16 06:59:59;;;;;;;16.37;9.57;;;5.40;99.90;;;;;;5084805;28;20445;-69
2023/12/16 07:02:27;;;;;;;17.80;9.97;;;5.40;99.90;;;;;;5084348;28;20446;-69
2023/12/16 07:04:56;;;;;;;16.97;9.27;;;5.40;99.90;;;;;;5083378;28;21020;-69
2023/12/16 07:07:28;;;;;;;17.70;9.40;;;5.40;99.90;;;;;;5084173;28;20453;-70
2023/12/16 07:09:57;;;;;;;17.80;8.50;;;5.40;99.90;;;;;;5083078;28;20454;-68
2023/12/16 07:12:26;;;;;;;13.83;8.20;;;5.30;99.90;;;;;;5084771;28;20488;-69
2023/12/16 07:14:53;;;;;;;15.20;8.40;;;5.30;99.90;;;;;;5084492;28;21047;-69
2023/12/16 07:17:21;;;;;;;15.40;8.17;;;5.30;99.90;;;;;;5085615;28;20457;-69
2023/12/16 07:19:50;;;;;;;14.10;7.90;;;5.20;99.90;;;;;;5083404;28;20550;-68
2023/12/16 07:22:18;;;;;;;14.90;9.23;;;5.20;99.90;;;;;;5083670;28;20454;-71
2023/12/16 07:24:47;;;;;;;17.43;9.60;;;5.20;99.90;;;;;;5083765;28;20501;-69
2023/12/16 07:27:16;;;;;;;15.20;9.17;;;5.20;99.90;;;;;;5088241;28;20450;-69
2023/12/16 07:29:44;;;;;;;16.57;8.53;;;5.30;99.90;;;;;;5088118;28;20457;-70
2023/12/16 07:32:12;;;;;;;16.27;8.97;;;5.50;99.90;;;;;;5089087;28;21051;-66
2023/12/16 07:34:40;;;;;;;13.80;7.70;;;5.50;99.90;;;;;;5087635;28;21044;-69
2023/12/16 07:37:09;;;;;;;14.90;10.03;;;5.50;99.90;;;;;;5100390;28;20484;-68
2023/12/16 07:39:40;;;;;;;16.10;8.70;;;5.50;99.90;;;;;;5108249;28;20475;-69
2023/12/16 07:42:08;;;;;;;12.73;7.80;;;5.50;99.90;;;;;;5108482;28;20433;-68
2023/12/16 07:44:38;;;;;;;14.50;8.13;;;5.50;99.90;;;;;;5106496;28;20497;-70
2023/12/16 07:47:10;;;;;;;14.10;7.27;;;5.50;99.90;;;;;;5107595;28;20498;-69
2023/12/16 07:49:38;;;;;;;13.07;7.53;;;5.50;99.90;;;;;;5108030;28;20443;-68
2023/12/16 07:52:06;;;;;;;14.90;8.80;;;5.60;99.90;;;;;;5108854;28;20527;-69
2023/12/16 07:54:34;;;;;;;18.60;8.83;;;5.60;99.90;;;;;;5106723;28;20500;-68
2023/12/16 07:57:02;;;;;;;14.17;7.40;;;5.60;99.90;;;;;;5108206;28;20445;-70
2023/12/16 07:59:31;;;;;;;15.07;7.23;;;5.60;99.90;;;;;;5108231;28;20502;-68
2023/12/16 08:02:03;;;;;;;13.83;7.33;;;5.60;99.90;;;;;;5108199;28;20543;-70
2023/12/16 08:04:32;;;;;;;12.47;7.10;;;5.70;99.90;;;;;;5106879;28;21013;-71
2023/12/16 08:07:00;;;;;;;14.87;8.33;;;5.80;99.90;;;;;;5108254;28;20498;-70
2023/12/16 08:09:28;;;;;;;16.40;9.57;;;5.80;99.90;;;;;;5106870;28;20455;-69
2023/12/16 08:11:58;;;;;;;15.27;8.53;;;6.00;99.90;;;;;;5106345;28;20997;-68
2023/12/16 08:14:26;;;;;;;17.77;8.83;;;5.90;99.90;;;;;;5104996;28;20467;-69
2023/12/16 08:16:54;;;;;;;16.10;8.67;;;6.00;99.90;;;;;;5107822;28;21051;-69
2023/12/16 08:19:23;;;;;;;16.73;9.47;;;6.00;99.90;;;;;;5107752;28;20445;-69
2023/12/16 08:21:51;;;;;;;14.80;8.97;;;6.00;99.90;;;;;;5107767;28;20445;-70
2023/12/16 08:24:19;;;;;;;17.67;9.27;;;6.00;99.90;;;;;;5107257;28;20441;-67
2023/12/16 08:26:49;;;;;;;17.13;8.90;;;6.10;99.90;;;;;;5109058;28;20474;-70
2023/12/16 08:29:19;;;;;;;17.30;8.60;;;6.10;99.90;;;;;;5107295;28;20441;-69
2023/12/16 08:31:47;;;;;;;16.80;9.67;;;6.10;99.90;;;;;;5108005;28;20584;-73
2023/12/16 08:34:15;;;;;;;14.20;7.70;;;6.10;99.90;;;;;;5108451;28;20829;-69
2023/12/16 08:36:44;;;;;;;14.03;8.20;;;6.20;99.90;;;;;;5106647;28;20443;-68
2023/12/16 08:39:12;;;;;;;17.10;8.93;;;6.30;99.90;;;;;;5108532;28;20437;-66
2023/12/16 08:41:41;;;;;;;16.53;9.63;;;6.40;99.90;;;;;;5100906;28;20446;-67
2023/12/16 08:44:09;;;;;;;16.77;9.90;;;6.50;99.90;;;;;;5107580;28;20442;-68
2023/12/16 08:46:45;;;;;;;15.23;8.50;;;6.50;99.90;;;;;;5107695;28;21215;-67
2023/12/16 08:49:13;;;;;;;13.20;6.60;;;6.60;99.90;;;;;;5104599;28;20454;-68
2023/12/16 08:51:41;;;;;;;12.83;6.57;;;6.70;99.90;;;;;;5112728;27;20512;-68
2023/12/16 08:54:11;;;;;;;13.00;7.20;;;6.90;99.90;;;;;;5099249;27;20492;-69
2023/12/16 08:56:39;;;;;;;12.40;7.07;;;7.00;99.90;;;;;;5086263;28;20468;-67
2023/12/16 08:59:07;;;;;;;12.63;6.73;;;7.10;99.90;;;;;;5086706;28;20437;-69
2023/12/16 09:01:35;;;;;;;13.63;7.30;;;7.10;99.90;;;;;;5086721;28;20541;-69
2023/12/16 09:04:03;;;;;;;11.67;6.60;;;7.20;99.90;;;;;;5086063;28;20789;-69
2023/12/16 09:06:31;;;;;;;12.07;6.17;;;7.10;99.90;;;;;;5086019;28;20471;-68
2023/12/16 09:09:01;;;;;;;11.67;6.60;;;7.20;99.90;;;;;;5086467;28;21097;-67
2023/12/16 09:11:30;;;;;;;11.83;6.60;;;7.30;99.90;;;;;;5088676;28;20435;-67
2023/12/16 09:13:58;;;;;;;13.80;6.60;;;7.40;99.90;;;;;;5085061;28;20505;-69
2023/12/16 09:16:26;;;;;;;10.90;6.10;;;7.40;99.90;;;;;;5085293;28;20483;-69
2023/12/16 09:18:54;;;;;;;12.03;6.43;;;7.40;99.90;;;;;;5086310;28;20459;-67
2023/12/16 09:21:22;;;;;;;10.80;5.93;;;7.40;99.90;;;;;;5085615;28;20466;-68
2023/12/16 09:23:58;;;;;;;12.40;6.20;;;7.40;99.90;;;;;;5086629;28;20852;-67
2023/12/16 09:26:26;;;;;;;12.60;6.60;;;7.50;99.90;;;;;;5086462;28;20958;-66
2023/12/16 09:28:56;;;;;;;11.27;5.60;;;7.40;99.90;;;;;;5086800;28;21017;-67
2023/12/16 09:31:24;;;;;;;11.43;5.90;;;7.50;99.90;;;;;;5087162;28;20448;-68
2023/12/16 09:33:52;;;;;;;11.57;5.70;;;7.40;99.90;;;;;;5086030;28;20490;-67
2023/12/16 09:36:26;;;;;;;11.67;5.07;;;7.50;99.90;;;;;;5084082;28;20453;-65
2023/12/16 09:38:54;;;;;;;13.10;6.10;;;7.50;99.90;;;;;;5085759;28;20566;-67
2023/12/16 09:41:24;;;;;;;12.97;6.60;;;7.60;99.90;;;;;;5085549;28;21143;-68
2023/12/16 09:43:54;;;;;;;12.30;5.00;;;7.60;99.90;;;;;;5099245;28;20953;-68
2023/12/16 09:46:25;;;;;;;13.00;6.50;;;7.60;99.90;;;;;;5099325;28;20549;-68
2023/12/16 09:48:54;;;;;;;10.33;5.83;;;7.60;99.90;;;;;;5094999;28;20431;-66
2023/12/16 09:51:23;;;;;;;12.40;5.20;;;7.80;99.90;;;;;;5092694;27;20550;-68
2023/12/16 09:53:51;;;;;;;11.50;5.17;;;7.80;99.90;;;;;;5097216;27;20507;-69
2023/12/16 09:56:20;;;;;;;11.63;5.47;;;7.90;99.90;;;;;;5096124;28;20496;-71
2023/12/16 09:58:51;;;;;;;14.70;5.83;;;8.00;99.90;;;;;;5096317;28;20444;-70
2023/12/16 10:01:20;;;;;;;11.23;6.03;;;8.10;99.90;;;;;;5094595;28;20519;-70
2023/12/16 10:03:50;;;;;;;11.20;6.07;;;8.20;99.90;;;;;;5094645;28;20438;-69
2023/12/16 10:06:18;;;;;;;12.60;6.40;;;8.20;99.90;;;;;;5097498;28;20452;-69
2023/12/16 10:08:47;;;;;;;10.33;5.53;;;8.20;99.90;;;;;;5091245;28;21021;-69
2023/12/16 10:11:16;;;;;;;10.40;5.63;;;8.30;99.90;;;;;;5097554;28;20441;-68
2023/12/16 10:13:57;;;;;;;11.37;6.67;;;8.40;99.90;;;;;;5096938;28;20481;-69
2023/12/16 10:16:25;;;;;;;11.47;6.07;;;8.40;99.90;;;;;;5093663;28;20540;-70
2023/12/16 10:18:55;;;;;;;10.23;5.27;;;8.40;99.90;;;;;;5089540;28;20437;-69
2023/12/16 10:21:26;;;;;;;10.50;5.53;;;8.60;99.90;;;;;;5084033;28;20478;-72
2023/12/16 10:23:56;;;;;;;10.60;5.90;;;8.70;99.90;;;;;;5088533;28;20561;-68
2023/12/16 10:26:24;;;;;;;13.80;6.17;;;8.70;99.90;;;;;;5092585;28;20997;-68
2023/12/16 10:28:53;;;;;;;12.30;6.77;;;8.70;99.90;;;;;;5100942;28;21279;-70
2023/12/16 10:31:24;;;;;;;12.27;6.33;;;8.70;99.90;;;;;;5084414;28;20529;-71
2023/12/16 10:33:54;;;;;;;10.30;5.30;;;8.60;99.90;;;;;;5093259;28;20492;-69
2023/12/16 10:36:22;;;;;;;12.40;6.17;;;8.70;99.90;;;;;;5094296;28;20460;-70
2023/12/16 10:38:49;;;;;;;12.20;5.43;;;8.60;99.90;;;;;;5096524;27;20451;-69
2023/12/16 10:41:17;;;;;;;12.20;5.90;;;8.50;99.90;;;;;;5099862;27;20523;-69
2023/12/16 10:43:45;;;;;;;12.60;6.10;;;8.50;99.90;;;;;;5094527;28;20445;-70
2023/12/16 10:46:16;;;;;;;11.80;6.37;;;8.50;99.90;;;;;;5096743;28;20471;-69
2023/12/16 10:48:48;;;;;;;12.43;5.83;;;8.60;99.90;;;;;;5096434;27;20553;-69
2023/12/16 10:51:19;;;;;;;12.77;5.97;;;8.50;99.90;;;;;;5099089;28;20440;-69
2023/12/16 10:53:56;;;;;;;11.70;6.40;;;8.60;99.90;;;;;;5094008;28;20601;-70
2023/12/16 10:56:28;;;;;;;11.90;6.53;;;8.50;99.90;;;;;;5092920;28;20985;-68
2023/12/16 10:59:04;;;;;;;12.20;6.10;;;8.50;99.90;;;;;;5094627;28;20437;-70
2023/12/16 11:01:35;;;;;;;13.37;6.83;;;8.50;99.90;;;;;;5094882;28;21010;-69
2023/12/16 11:04:10;;;;;;;16.27;7.33;;;8.60;99.90;;;;;;5095545;28;20528;-69
2023/12/16 11:06:45;;;;;;;11.20;5.93;;;8.70;99.90;;;;;;5093332;28;20434;-67
2023/12/16 11:09:14;;;;;;;14.57;7.40;;;8.70;99.90;;;;;;5092128;28;20530;-68
2023/12/16 11:11:42;;;;;;;12.10;6.90;;;8.60;99.90;;;;;;5087307;28;20544;-68
2023/12/16 11:14:10;;;;;;;12.57;6.03;;;8.50;99.90;;;;;;5088634;28;20482;-71
2023/12/16 11:16:48;;;;;;;13.40;5.93;;;8.50;99.90;;;;;;5093127;28;20444;-68
2023/12/16 11:19:18;;;;;;;13.70;6.50;;;8.40;99.90;;;;;;5094766;28;20841;-69
2023/12/16 11:21:48;;;;;;;12.80;6.80;;;8.40;99.90;;;;;;5092546;28;20460;-69
2023/12/16 11:24:16;;;;;;;13.63;6.80;;;8.30;99.90;;;;;;5099984;28;20925;-69
2023/12/16 11:26:49;;;;;;;11.67;5.80;;;8.30;99.90;;;;;;5084065;28;20491;-70
2023/12/16 11:29:20;;;;;;;11.73;6.13;;;8.40;99.90;;;;;;5093330;28;21238;-70
2023/12/16 11:31:52;;;;;;;13.33;6.53;;;8.40;99.90;;;;;;5095759;28;20440;-70
2023/12/16 11:34:41;;;;;;;15.70;6.93;;;8.60;99.90;;;;;;5091296;28;20469;-69
2023/12/16 11:37:11;;;;;;;13.50;6.70;;;8.80;99.90;;;;;;5093862;28;20796;-70
2023/12/16 11:39:41;;;;;;;11.07;6.23;;;9.00;99.90;;;;;;5092709;28;20507;-68
2023/12/16 11:42:10;;;;;;;13.10;6.17;;;9.20;99.90;;;;;;5091208;28;20444;-69
2023/12/16 11:44:52;;;;;;;12.77;6.17;;;9.40;99.90;;;;;;5088526;28;20480;-69
2023/12/16 11:47:22;;;;;;;12.80;7.10;;;9.40;99.90;;;;;;5094205;28;20528;-69
2023/12/16 11:49:51;;;;;;;12.77;6.20;;;9.50;99.90;;;;;;5088785;28;20435;-68
2023/12/16 11:52:22;;;;;;;11.53;6.63;;;9.70;99.90;;;;;;5086709;28;20500;-69
2023/12/16 11:54:52;;;;;;;11.90;6.30;;;9.70;99.90;;;;;;5097726;28;20494;-70
2023/12/16 11:57:21;;;;;;;13.20;6.70;;;9.80;99.90;;;;;;5091790;28;20462;-70
2023/12/16 11:59:53;;;;;;;12.57;5.87;;;10.00;99.90;;;;;;5092591;28;20437;-69
2023/12/16 12:02:21;;;;;;;11.70;5.60;;;9.90;99.90;;;;;;5094811;28;20468;-69
2023/12/16 12:04:49;;;;;;;14.40;6.80;;;9.80;99.90;;;;;;5090269;28;20519;-69
2023/12/16 12:07:18;;;;;;;14.43;6.67;;;9.60;99.90;;;;;;5094883;28;20439;-71
2023/12/16 12:09:47;;;;;;;13.30;6.77;;;9.50;99.90;;;;;;5095017;28;20455;-70
2023/12/16 12:12:16;;;;;;;13.73;6.67;;;9.50;99.90;;;;;;5101669;28;20978;-67
2023/12/16 12:14:46;;;;;;;13.10;6.43;;;9.40;99.90;;;;;;5095270;28;20496;-71
2023/12/16 12:17:15;;;;;;;13.00;6.80;;;9.50;99.90;;;;;;5104833;28;20487;-71
2023/12/16 12:19:43;;;;;;;13.83;7.67;;;9.50;99.90;;;;;;5097649;28;20480;-70
2023/12/16 12:22:12;;;;;;;14.20;8.23;;;9.50;99.90;;;;;;5101250;28;20449;-70
2023/12/16 12:24:40;;;;;;;14.33;6.97;;;9.40;99.90;;;;;;5095216;28;20457;-68
2023/12/16 12:27:09;;;;;;;12.60;7.07;;;9.50;99.90;;;;;;5090093;28;20549;-68
2023/12/16 12:29:55;;;;;;;12.20;6.47;;;9.50;99.90;;;;;;5089215;28;20535;-70
2023/12/16 12:32:23;;;;;;;12.30;6.67;;;9.50;99.90;;;;;;5094394;28;21103;-70
2023/12/16 12:35:02;;;;;;;13.10;7.10;;;9.50;99.90;;;;;;5092367;28;20479;-68
2023/12/16 12:37:36;;;;;;;13.97;7.27;;;9.50;99.90;;;;;;5094578;28;20866;-69
2023/12/16 12:40:06;;;;;;;15.37;7.23;;;9.40;99.90;;;;;;5093200;28;20944;-71
2023/12/16 12:42:48;;;;;;;13.40;7.20;;;9.30;99.90;;;;;;5092062;28;20534;-68
2023/12/16 12:45:28;;;;;;;15.23;7.87;;;9.30;99.90;;;;;;5103297;28;21266;-70
2023/12/16 12:48:08;;;;;;;17.03;6.83;;;9.10;99.90;;;;;;5093446;28;20469;-70
2023/12/16 12:50:37;;;;;;;13.93;7.47;;;9.20;99.90;;;;;;5091628;28;20518;-70
2023/12/16 12:53:15;;;;;;;12.47;7.03;;;9.20;99.90;;;;;;5100001;28;20434;-70